Time,TemperatureF,DewpointF,PressureIn,WindDirection,WindDirectionDegrees,WindSpeedMPH,WindSpeedGustMPH,Humidity,HourlyPrecipIn,Conditions,Clouds,dailyrainin,SoftwareType,DateUTC
2015-03-27 00:23:00,38.0,33.0,-100.00,WNW,290,1.0,3.0,80,0.00,,,-99.99,,2015-03-27 04:23:00,
2015-03-27 00:53:00,38.0,33.0,-100.00,West,275,2.0,3.0,85,0.00,,,-99.99,,2015-03-27 04:53:00,
2015-03-27 01:52:00,38.0,30.0,-100.00,WNW,290,4.0,9.0,74,0.00,,,-99.99,,2015-03-27 05:52:00,
2015-03-27 02:22:00,36.0,28.0,-100.00,NW,305,4.0,9.0,71,0.00,,,-99.99,,2015-03-27 06:22:00,
2015-03-27 02:51:00,35.0,28.0,-100.00,WNW,295,4.0,7.0,73,0.00,,,-99.99,,2015-03-27 06:51:00,
2015-03-27 03:01:00,35.0,28.0,-100.00,WNW,295,4.0,7.0,73,0.00,,,-99.99,,2015-03-27 07:01:00,
2015-03-27 03:21:00,35.0,27.0,-100.00,WNW,300,4.0,9.0,73,0.00,,,-99.99,,2015-03-27 07:21:00,
2015-03-27 03:31:00,35.0,27.0,-100.00,WNW,300,4.0,9.0,73,0.00,,,-99.99,,2015-03-27 07:31:00,
2015-03-27 03:51:00,34.0,26.0,-100.00,WNW,300,5.0,9.0,72,0.00,,,-99.99,,2015-03-27 07:51:00,
2015-03-27 04:21:00,33.0,25.0,-100.00,WNW,295,2.0,6.0,72,0.00,,,-99.99,,2015-03-27 08:21:00,
2015-03-27 04:51:00,32.0,24.0,-100.00,NW,325,3.0,6.0,73,0.00,,,-99.99,,2015-03-27 08:51:00,
2015-03-27 05:21:00,31.0,24.0,-100.00,WNW,295,1.0,4.0,74,0.00,,,-99.99,,2015-03-27 09:21:00,
2015-03-27 05:52:00,30.0,23.0,-100.00,WNW,300,1.0,3.0,76,0.00,,,-99.99,,2015-03-27 09:52:00,
2015-03-27 06:22:00,29.0,23.0,-100.00,NW,315,2.0,4.0,77,0.00,,,-99.99,,2015-03-27 10:22:00,
2015-03-27 06:52:00,29.0,23.0,-100.00,NW,305,2.0,3.0,78,0.00,,,-99.99,,2015-03-27 10:52:00,
2015-03-27 07:22:00,29.0,23.0,-100.00,NW,325,1.0,4.0,79,0.00,,,-99.99,,2015-03-27 11:22:00,
2015-03-27 07:52:00,29.0,23.0,-100.00,WNW,300,2.0,4.0,78,0.00,,,-99.99,,2015-03-27 11:52:00,
2015-03-27 08:22:00,29.0,23.0,-100.00,WNW,295,3.0,6.0,78,0.00,,,-99.99,,2015-03-27 12:22:00,
2015-03-27 08:51:00,30.0,23.0,-100.00,WNW,295,4.0,6.0,76,0.00,,,-99.99,,2015-03-27 12:51:00,
2015-03-27 09:21:00,30.0,24.0,-100.00,WNW,295,1.0,4.0,76,0.00,,,-99.99,,2015-03-27 13:21:00,
2015-03-27 09:51:00,32.0,24.0,-100.00,WNW,300,6.0,9.0,72,0.00,,,-99.99,,2015-03-27 13:51:00,